sensor_id;sensor_type;location;lat;lon;timestamp;P1;durP1;ratioP1;P2;durP2;ratioP2
62353;SDS011;48391;49.184;2.418;2023-09-30T06:21:04;2.28;;;1.02;;
62353;SDS011;48391;49.184;2.418;2023-09-30T06:23:37;1.67;;;0.70;;
62353;SDS011;48391;49.184;2.418;2023-09-30T06:26:03;2.20;;;1.40;;
62353;SDS011;48391;49.184;2.418;2023-09-30T06:28:37;3.63;;;1.20;;
62353;SDS011;48391;49.184;2.418;2023-09-30T06:31:09;2.15;;;0.98;;
62353;SDS011;48391;49.184;2.418;2023-09-30T06:33:38;1.67;;;1.10;;
62353;SDS011;48391;49.184;2.418;2023-09-30T06:36:11;1.98;;;0.88;;
62353;SDS011;48391;49.184;2.418;2023-09-30T06:38:42;1.60;;;0.77;;
62353;SDS011;48391;49.184;2.418;2023-09-30T06:41:08;1.77;;;1.00;;
62353;SDS011;48391;49.184;2.418;2023-09-30T06:43:34;2.10;;;1.35;;
62353;SDS011;48391;49.184;2.418;2023-09-30T06:46:13;3.60;;;1.38;;
62353;SDS011;48391;49.184;2.418;2023-09-30T06:48:42;2.58;;;1.50;;
62353;SDS011;48391;49.184;2.418;2023-09-30T06:51:15;3.13;;;1.33;;
62353;SDS011;48391;49.184;2.418;2023-09-30T06:53:44;1.58;;;1.30;;
62353;SDS011;48391;49.184;2.418;2023-09-30T06:56:13;3.38;;;1.67;;
62353;SDS011;48391;49.184;2.418;2023-09-30T06:58:39;4.22;;;1.63;;
62353;SDS011;48391;49.184;2.418;2023-09-30T07:01:07;1.90;;;1.58;;
62353;SDS011;48391;49.184;2.418;2023-09-30T07:03:33;3.40;;;1.80;;
62353;SDS011;48391;49.184;2.418;2023-09-30T07:06:02;5.50;;;2.83;;
62353;SDS011;48391;49.184;2.418;2023-09-30T07:08:28;5.38;;;2.13;;
62353;SDS011;48391;49.184;2.418;2023-09-30T07:10:55;3.05;;;1.38;;
62353;SDS011;48391;49.184;2.418;2023-09-30T07:13:32;2.25;;;1.23;;
62353;SDS011;48391;49.184;2.418;2023-09-30T07:16:00;5.63;;;1.95;;
62353;SDS011;48391;49.184;2.418;2023-09-30T07:18:29;1.55;;;1.33;;
62353;SDS011;48391;49.184;2.418;2023-09-30T07:20:57;1.83;;;1.20;;
62353;SDS011;48391;49.184;2.418;2023-09-30T07:23:25;3.38;;;1.20;;
62353;SDS011;48391;49.184;2.418;2023-09-30T07:26:05;1.90;;;1.25;;
62353;SDS011;48391;49.184;2.418;2023-09-30T07:28:49;1.58;;;1.25;;
62353;SDS011;48391;49.184;2.418;2023-09-30T07:31:25;1.65;;;1.33;;
62353;SDS011;48391;49.184;2.418;2023-09-30T07:33:54;3.10;;;2.13;;
62353;SDS011;48391;49.184;2.418;2023-09-30T07:36:20;3.20;;;1.73;;
62353;SDS011;48391;49.184;2.418;2023-09-30T07:38:46;2.08;;;1.35;;
62353;SDS011;48391;49.184;2.418;2023-09-30T07:41:12;2.00;;;1.33;;
62353;SDS011;48391;49.184;2.418;2023-09-30T07:43:38;2.13;;;1.40;;
62353;SDS011;48391;49.184;2.418;2023-09-30T07:46:05;2.97;;;1.25;;
62353;SDS011;48391;49.184;2.418;2023-09-30T07:48:31;1.95;;;1.60;;
62353;SDS011;48391;49.184;2.418;2023-09-30T07:51:03;2.88;;;1.83;;
62353;SDS011;48391;49.184;2.418;2023-09-30T07:53:31;1.88;;;1.00;;
62353;SDS011;48391;49.184;2.418;2023-09-30T07:56:00;2.78;;;1.67;;
62353;SDS011;48391;49.184;2.418;2023-09-30T07:58:26;4.40;;;2.50;;
62353;SDS011;48391;49.184;2.418;2023-09-30T08:00:53;2.20;;;1.42;;
62353;SDS011;48391;49.184;2.418;2023-09-30T08:03:19;1.52;;;1.33;;
62353;SDS011;48391;49.184;2.418;2023-09-30T08:05:48;1.80;;;1.30;;
62353;SDS011;48391;49.184;2.418;2023-09-30T08:08:15;1.43;;;1.27;;
62353;SDS011;48391;49.184;2.418;2023-09-30T08:10:42;1.73;;;1.05;;
62353;SDS011;48391;49.184;2.418;2023-09-30T08:13:08;1.33;;;1.08;;
62353;SDS011;48391;49.184;2.418;2023-09-30T08:15:34;2.28;;;1.33;;
62353;SDS011;48391;49.184;2.418;2023-09-30T08:18:00;1.08;;;0.98;;
62353;SDS011;48391;49.184;2.418;2023-09-30T08:20:31;1.52;;;1.27;;
62353;SDS011;48391;49.184;2.418;2023-09-30T08:22:57;2.05;;;1.70;;
62353;SDS011;48391;49.184;2.418;2023-09-30T08:25:23;2.30;;;1.33;;
62353;SDS011;48391;49.184;2.418;2023-09-30T08:27:52;2.13;;;1.60;;
62353;SDS011;48391;49.184;2.418;2023-09-30T08:30:18;3.35;;;2.10;;
62353;SDS011;48391;49.184;2.418;2023-09-30T08:32:45;2.72;;;2.30;;
62353;SDS011;48391;49.184;2.418;2023-09-30T08:35:13;5.20;;;2.17;;
62353;SDS011;48391;49.184;2.418;2023-09-30T08:37:40;1.77;;;1.33;;
62353;SDS011;48391;49.184;2.418;2023-09-30T08:40:06;1.50;;;1.17;;
62353;SDS011;48391;49.184;2.418;2023-09-30T08:42:35;2.15;;;1.33;;
62353;SDS011;48391;49.184;2.418;2023-09-30T08:45:01;2.05;;;1.48;;
62353;SDS011;48391;49.184;2.418;2023-09-30T08:47:28;1.35;;;1.02;;
62353;SDS011;48391;49.184;2.418;2023-09-30T08:49:54;1.77;;;1.10;;
62353;SDS011;48391;49.184;2.418;2023-09-30T08:54:53;2.40;;;1.52;;
62353;SDS011;48391;49.184;2.418;2023-09-30T08:57:19;1.58;;;1.40;;
62353;SDS011;48391;49.184;2.418;2023-09-30T08:59:45;2.58;;;1.70;;
62353;SDS011;48391;49.184;2.418;2023-09-30T09:02:12;5.55;;;2.05;;
62353;SDS011;48391;49.184;2.418;2023-09-30T09:04:38;6.72;;;2.42;;
62353;SDS011;48391;49.184;2.418;2023-09-30T09:07:04;4.47;;;1.55;;
62353;SDS011;48391;49.184;2.418;2023-09-30T09:09:30;2.67;;;1.38;;
62353;SDS011;48391;49.184;2.418;2023-09-30T09:11:57;3.05;;;1.75;;
62353;SDS011;48391;49.184;2.418;2023-09-30T09:14:36;2.60;;;1.70;;
62353;SDS011;48391;49.184;2.418;2023-09-30T09:17:03;1.70;;;1.25;;
62353;SDS011;48391;49.184;2.418;2023-09-30T09:19:29;1.95;;;1.45;;
62353;SDS011;48391;49.184;2.418;2023-09-30T09:21:59;1.55;;;1.20;;
62353;SDS011;48391;49.184;2.418;2023-09-30T09:24:32;3.38;;;1.20;;
62353;SDS011;48391;49.184;2.418;2023-09-30T09:27:06;0.93;;;0.90;;
62353;SDS011;48391;49.184;2.418;2023-09-30T09:29:32;3.28;;;1.42;;
62353;SDS011;48391;49.184;2.418;2023-09-30T09:32:08;1.80;;;0.85;;
62353;SDS011;48391;49.184;2.418;2023-09-30T09:34:35;2.63;;;1.52;;
62353;SDS011;48391;49.184;2.418;2023-09-30T09:37:17;6.40;;;2.05;;
62353;SDS011;48391;49.184;2.418;2023-09-30T09:39:50;3.25;;;1.40;;
62353;SDS011;48391;49.184;2.418;2023-09-30T09:42:30;2.10;;;1.27;;
62353;SDS011;48391;49.184;2.418;2023-09-30T09:44:57;2.50;;;1.27;;
62353;SDS011;48391;49.184;2.418;2023-09-30T09:47:24;4.47;;;2.25;;
62353;SDS011;48391;49.184;2.418;2023-09-30T09:49:50;1.33;;;0.95;;
62353;SDS011;48391;49.184;2.418;2023-09-30T09:52:17;2.58;;;1.52;;
62353;SDS011;48391;49.184;2.418;2023-09-30T09:54:44;2.95;;;1.13;;
62353;SDS011;48391;49.184;2.418;2023-09-30T09:57:11;4.40;;;2.08;;
62353;SDS011;48391;49.184;2.418;2023-09-30T09:59:38;5.03;;;2.55;;
62353;SDS011;48391;49.184;2.418;2023-09-30T10:02:11;1.92;;;1.10;;
62353;SDS011;48391;49.184;2.418;2023-09-30T10:04:39;3.25;;;1.40;;
62353;SDS011;48391;49.184;2.418;2023-09-30T10:07:07;2.35;;;1.30;;
62353;SDS011;48391;49.184;2.418;2023-09-30T10:09:36;3.80;;;1.65;;
62353;SDS011;48391;49.184;2.418;2023-09-30T10:12:02;1.83;;;1.27;;
62353;SDS011;48391;49.184;2.418;2023-09-30T10:14:33;3.85;;;1.52;;
62353;SDS011;48391;49.184;2.418;2023-09-30T10:20:02;3.10;;;1.23;;
62353;SDS011;48391;49.184;2.418;2023-09-30T10:22:23;3.67;;;1.67;;
62353;SDS011;48391;49.184;2.418;2023-09-30T10:24:53;3.45;;;1.52;;
62353;SDS011;48391;49.184;2.418;2023-09-30T10:37:44;2.95;;;1.05;;
62353;SDS011;48391;49.184;2.418;2023-09-30T10:43:06;2.40;;;0.85;;
62353;SDS011;48391;49.184;2.418;2023-09-30T10:45:52;5.75;;;2.05;;
62353;SDS011;48391;49.184;2.418;2023-09-30T10:51:00;2.05;;;0.98;;
62353;SDS011;48391;49.184;2.418;2023-09-30T10:53:26;4.22;;;1.40;;
62353;SDS011;48391;49.184;2.418;2023-09-30T10:55:56;2.58;;;1.63;;
62353;SDS011;48391;49.184;2.418;2023-09-30T11:01:07;4.78;;;1.90;;
62353;SDS011;48391;49.184;2.418;2023-09-30T11:03:33;3.85;;;1.88;;
62353;SDS011;48391;49.184;2.418;2023-09-30T11:06:00;6.13;;;1.90;;
62353;SDS011;48391;49.184;2.418;2023-09-30T11:08:27;3.17;;;1.80;;
62353;SDS011;48391;49.184;2.418;2023-09-30T11:10:55;5.72;;;1.52;;
62353;SDS011;48391;49.184;2.418;2023-09-30T11:13:21;2.85;;;1.50;;
62353;SDS011;48391;49.184;2.418;2023-09-30T11:15:53;2.97;;;1.35;;
62353;SDS011;48391;49.184;2.418;2023-09-30T11:18:25;5.10;;;2.42;;
62353;SDS011;48391;49.184;2.418;2023-09-30T11:20:53;3.20;;;2.00;;
62353;SDS011;48391;49.184;2.418;2023-09-30T11:23:28;8.25;;;3.55;;
62353;SDS011;48391;49.184;2.418;2023-09-30T11:25:54;6.38;;;2.72;;
62353;SDS011;48391;49.184;2.418;2023-09-30T11:28:20;3.15;;;1.90;;
62353;SDS011;48391;49.184;2.418;2023-09-30T11:30:54;6.63;;;4.35;;
62353;SDS011;48391;49.184;2.418;2023-09-30T11:33:20;6.32;;;2.35;;
62353;SDS011;48391;49.184;2.418;2023-09-30T11:36:03;5.43;;;3.42;;
62353;SDS011;48391;49.184;2.418;2023-09-30T11:38:29;4.18;;;3.03;;
62353;SDS011;48391;49.184;2.418;2023-09-30T11:41:00;3.60;;;2.42;;
62353;SDS011;48391;49.184;2.418;2023-09-30T11:43:27;4.50;;;2.50;;
62353;SDS011;48391;49.184;2.418;2023-09-30T11:46:03;6.05;;;3.05;;
62353;SDS011;48391;49.184;2.418;2023-09-30T11:48:29;6.75;;;3.63;;
62353;SDS011;48391;49.184;2.418;2023-09-30T11:51:01;4.63;;;2.97;;
62353;SDS011;48391;49.184;2.418;2023-09-30T11:53:31;5.15;;;2.85;;
62353;SDS011;48391;49.184;2.418;2023-09-30T11:55:58;4.78;;;3.17;;
62353;SDS011;48391;49.184;2.418;2023-09-30T11:58:27;4.50;;;3.20;;
62353;SDS011;48391;49.184;2.418;2023-09-30T12:00:57;5.82;;;3.88;;
62353;SDS011;48391;49.184;2.418;2023-09-30T12:03:26;5.28;;;3.00;;
62353;SDS011;48391;49.184;2.418;2023-09-30T12:05:55;4.35;;;2.92;;
62353;SDS011;48391;49.184;2.418;2023-09-30T12:08:27;4.47;;;2.58;;
62353;SDS011;48391;49.184;2.418;2023-09-30T12:11:01;3.45;;;2.45;;
62353;SDS011;48391;49.184;2.418;2023-09-30T12:13:30;5.47;;;3.00;;
62353;SDS011;48391;49.184;2.418;2023-09-30T12:15:56;5.45;;;3.05;;
62353;SDS011;48391;49.184;2.418;2023-09-30T12:18:22;4.35;;;2.75;;
62353;SDS011;48391;49.184;2.418;2023-09-30T12:20:50;5.55;;;3.50;;
62353;SDS011;48391;49.184;2.418;2023-09-30T12:23:20;5.17;;;2.97;;
62353;SDS011;48391;49.184;2.418;2023-09-30T12:25:49;3.88;;;2.70;;
62353;SDS011;48391;49.184;2.418;2023-09-30T12:28:17;3.20;;;2.20;;
62353;SDS011;48391;49.184;2.418;2023-09-30T12:30:46;5.47;;;2.95;;
62353;SDS011;48391;49.184;2.418;2023-09-30T12:33:12;6.22;;;3.17;;
62353;SDS011;48391;49.184;2.418;2023-09-30T12:38:29;5.30;;;3.10;;
62353;SDS011;48391;49.184;2.418;2023-09-30T12:41:03;8.30;;;5.32;;
62353;SDS011;48391;49.184;2.418;2023-09-30T12:43:35;6.15;;;3.88;;
62353;SDS011;48391;49.184;2.418;2023-09-30T12:46:06;4.93;;;3.90;;
62353;SDS011;48391;49.184;2.418;2023-09-30T12:48:32;5.47;;;3.33;;
62353;SDS011;48391;49.184;2.418;2023-09-30T12:51:01;5.97;;;3.40;;
62353;SDS011;48391;49.184;2.418;2023-09-30T12:53:34;5.85;;;4.57;;
62353;SDS011;48391;49.184;2.418;2023-09-30T12:56:03;5.40;;;3.90;;
62353;SDS011;48391;49.184;2.418;2023-09-30T12:58:53;7.63;;;4.65;;
62353;SDS011;48391;49.184;2.418;2023-09-30T13:06:36;5.40;;;3.22;;
62353;SDS011;48391;49.184;2.418;2023-09-30T13:09:12;4.80;;;2.85;;
62353;SDS011;48391;49.184;2.418;2023-09-30T13:11:38;6.70;;;4.10;;
62353;SDS011;48391;49.184;2.418;2023-09-30T13:14:10;4.72;;;3.10;;
62353;SDS011;48391;49.184;2.418;2023-09-30T13:16:36;5.15;;;3.45;;
62353;SDS011;48391;49.184;2.418;2023-09-30T13:19:12;5.70;;;3.57;;
62353;SDS011;48391;49.184;2.418;2023-09-30T13:21:43;5.22;;;3.65;;
62353;SDS011;48391;49.184;2.418;2023-09-30T13:24:20;4.43;;;2.75;;
62353;SDS011;48391;49.184;2.418;2023-09-30T13:26:50;4.80;;;3.47;;
62353;SDS011;48391;49.184;2.418;2023-09-30T13:29:17;4.83;;;3.10;;
62353;SDS011;48391;49.184;2.418;2023-09-30T13:31:44;4.18;;;3.03;;
62353;SDS011;48391;49.184;2.418;2023-09-30T13:34:10;7.10;;;4.13;;
62353;SDS011;48391;49.184;2.418;2023-09-30T13:36:37;4.15;;;3.33;;
62353;SDS011;48391;49.184;2.418;2023-09-30T13:39:03;5.60;;;3.55;;
62353;SDS011;48391;49.184;2.418;2023-09-30T13:41:37;4.63;;;3.47;;
62353;SDS011;48391;49.184;2.418;2023-09-30T13:44:04;5.85;;;3.78;;
62353;SDS011;48391;49.184;2.418;2023-09-30T13:46:30;4.90;;;3.83;;
62353;SDS011;48391;49.184;2.418;2023-09-30T13:48:56;6.28;;;3.63;;
62353;SDS011;48391;49.184;2.418;2023-09-30T13:51:23;5.50;;;3.08;;
62353;SDS011;48391;49.184;2.418;2023-09-30T13:53:49;4.45;;;3.25;;
62353;SDS011;48391;49.184;2.418;2023-09-30T13:56:15;5.70;;;3.88;;
62353;SDS011;48391;49.184;2.418;2023-09-30T13:58:42;5.95;;;3.15;;
62353;SDS011;48391;49.184;2.418;2023-09-30T14:01:08;3.47;;;2.80;;
62353;SDS011;48391;49.184;2.418;2023-09-30T14:03:35;7.80;;;4.20;;
62353;SDS011;48391;49.184;2.418;2023-09-30T14:06:01;6.03;;;3.55;;
62353;SDS011;48391;49.184;2.418;2023-09-30T14:08:27;6.45;;;4.18;;
62353;SDS011;48391;49.184;2.418;2023-09-30T14:10:55;6.93;;;4.25;;
62353;SDS011;48391;49.184;2.418;2023-09-30T14:13:21;3.72;;;3.10;;
62353;SDS011;48391;49.184;2.418;2023-09-30T14:15:48;5.63;;;3.50;;
62353;SDS011;48391;49.184;2.418;2023-09-30T14:18:14;4.45;;;3.33;;
62353;SDS011;48391;49.184;2.418;2023-09-30T14:20:40;7.07;;;3.85;;
62353;SDS011;48391;49.184;2.418;2023-09-30T14:23:06;7.40;;;4.18;;
62353;SDS011;48391;49.184;2.418;2023-09-30T14:25:32;6.00;;;4.03;;
62353;SDS011;48391;49.184;2.418;2023-09-30T14:27:58;4.90;;;3.55;;
62353;SDS011;48391;49.184;2.418;2023-09-30T14:30:25;4.07;;;3.20;;
62353;SDS011;48391;49.184;2.418;2023-09-30T14:32:51;5.38;;;3.63;;
62353;SDS011;48391;49.184;2.418;2023-09-30T14:35:19;6.30;;;4.43;;
62353;SDS011;48391;49.184;2.418;2023-09-30T14:37:45;5.18;;;3.60;;
62353;SDS011;48391;49.184;2.418;2023-09-30T14:40:11;7.65;;;3.92;;
62353;SDS011;48391;49.184;2.418;2023-09-30T14:42:38;5.15;;;3.88;;
62353;SDS011;48391;49.184;2.418;2023-09-30T14:45:04;6.55;;;4.22;;
62353;SDS011;48391;49.184;2.418;2023-09-30T14:47:30;5.00;;;3.15;;
62353;SDS011;48391;49.184;2.418;2023-09-30T14:49:56;5.35;;;3.92;;
62353;SDS011;48391;49.184;2.418;2023-09-30T14:52:22;5.57;;;3.63;;
62353;SDS011;48391;49.184;2.418;2023-09-30T14:54:48;4.97;;;3.33;;
62353;SDS011;48391;49.184;2.418;2023-09-30T14:57:14;7.32;;;4.03;;
62353;SDS011;48391;49.184;2.418;2023-09-30T14:59:41;5.78;;;3.53;;
62353;SDS011;48391;49.184;2.418;2023-09-30T15:02:07;5.50;;;3.97;;
62353;SDS011;48391;49.184;2.418;2023-09-30T15:04:36;4.38;;;3.33;;
62353;SDS011;48391;49.184;2.418;2023-09-30T15:07:02;7.07;;;4.13;;
62353;SDS011;48391;49.184;2.418;2023-09-30T15:09:28;6.72;;;4.47;;
62353;SDS011;48391;49.184;2.418;2023-09-30T15:11:54;5.40;;;3.65;;
62353;SDS011;48391;49.184;2.418;2023-09-30T15:14:20;4.82;;;3.40;;
62353;SDS011;48391;49.184;2.418;2023-09-30T15:16:46;5.80;;;3.47;;
62353;SDS011;48391;49.184;2.418;2023-09-30T15:19:12;5.95;;;3.95;;
62353;SDS011;48391;49.184;2.418;2023-09-30T15:21:38;5.40;;;3.70;;
62353;SDS011;48391;49.184;2.418;2023-09-30T15:24:05;4.57;;;3.63;;
62353;SDS011;48391;49.184;2.418;2023-09-30T15:26:32;4.55;;;3.53;;
62353;SDS011;48391;49.184;2.418;2023-09-30T15:28:58;5.00;;;3.42;;
62353;SDS011;48391;49.184;2.418;2023-09-30T15:31:27;5.53;;;3.35;;
62353;SDS011;48391;49.184;2.418;2023-09-30T15:33:54;6.13;;;4.13;;
62353;SDS011;48391;49.184;2.418;2023-09-30T15:36:21;4.68;;;3.33;;
62353;SDS011;48391;49.184;2.418;2023-09-30T15:38:47;5.80;;;3.70;;
62353;SDS011;48391;49.184;2.418;2023-09-30T15:41:13;6.60;;;4.63;;
62353;SDS011;48391;49.184;2.418;2023-09-30T15:43:39;5.35;;;3.60;;
62353;SDS011;48391;49.184;2.418;2023-09-30T15:46:07;6.00;;;3.67;;
62353;SDS011;48391;49.184;2.418;2023-09-30T15:48:33;7.47;;;4.28;;
62353;SDS011;48391;49.184;2.418;2023-09-30T15:51:00;5.25;;;3.72;;
62353;SDS011;48391;49.184;2.418;2023-09-30T15:53:26;5.63;;;4.03;;
62353;SDS011;48391;49.184;2.418;2023-09-30T15:55:53;7.57;;;4.68;;
62353;SDS011;48391;49.184;2.418;2023-09-30T15:58:19;5.68;;;3.85;;
62353;SDS011;48391;49.184;2.418;2023-09-30T16:00:45;5.53;;;3.30;;
62353;SDS011;48391;49.184;2.418;2023-09-30T16:03:13;5.05;;;3.13;;
62353;SDS011;48391;49.184;2.418;2023-09-30T16:05:39;6.10;;;3.35;;
62353;SDS011;48391;49.184;2.418;2023-09-30T16:08:06;5.15;;;3.47;;
62353;SDS011;48391;49.184;2.418;2023-09-30T16:10:33;4.70;;;3.30;;
62353;SDS011;48391;49.184;2.418;2023-09-30T16:13:00;6.10;;;4.18;;
62353;SDS011;48391;49.184;2.418;2023-09-30T16:15:26;4.07;;;3.17;;
62353;SDS011;48391;49.184;2.418;2023-09-30T16:17:53;3.75;;;2.97;;
62353;SDS011;48391;49.184;2.418;2023-09-30T16:20:19;4.35;;;3.30;;
62353;SDS011;48391;49.184;2.418;2023-09-30T16:22:50;4.65;;;2.60;;
62353;SDS011;48391;49.184;2.418;2023-09-30T16:25:16;4.20;;;3.13;;
62353;SDS011;48391;49.184;2.418;2023-09-30T16:27:43;3.92;;;2.67;;
62353;SDS011;48391;49.184;2.418;2023-09-30T16:30:09;3.95;;;3.03;;
62353;SDS011;48391;49.184;2.418;2023-09-30T16:32:37;4.15;;;3.15;;
62353;SDS011;48391;49.184;2.418;2023-09-30T16:35:04;5.38;;;3.42;;
62353;SDS011;48391;49.184;2.418;2023-09-30T16:37:32;4.05;;;2.33;;
62353;SDS011;48391;49.184;2.418;2023-09-30T16:39:58;4.10;;;3.13;;
62353;SDS011;48391;49.184;2.418;2023-09-30T16:42:25;3.53;;;2.58;;
62353;SDS011;48391;49.184;2.418;2023-09-30T16:44:54;4.38;;;2.90;;
62353;SDS011;48391;49.184;2.418;2023-09-30T16:47:20;4.25;;;2.88;;
62353;SDS011;48391;49.184;2.418;2023-09-30T16:49:46;3.95;;;3.15;;
62353;SDS011;48391;49.184;2.418;2023-09-30T16:52:13;3.15;;;2.60;;
62353;SDS011;48391;49.184;2.418;2023-09-30T16:54:40;3.47;;;2.83;;
62353;SDS011;48391;49.184;2.418;2023-09-30T16:57:06;3.60;;;2.95;;
62353;SDS011;48391;49.184;2.418;2023-09-30T16:59:32;3.72;;;2.53;;
62353;SDS011;48391;49.184;2.418;2023-09-30T17:02:01;4.15;;;3.35;;
62353;SDS011;48391;49.184;2.418;2023-09-30T17:04:27;4.35;;;3.72;;
62353;SDS011;48391;49.184;2.418;2023-09-30T17:06:53;3.15;;;2.75;;
62353;SDS011;48391;49.184;2.418;2023-09-30T17:09:19;4.78;;;3.20;;
62353;SDS011;48391;49.184;2.418;2023-09-30T17:11:45;3.42;;;2.65;;
62353;SDS011;48391;49.184;2.418;2023-09-30T17:14:11;3.85;;;2.60;;
62353;SDS011;48391;49.184;2.418;2023-09-30T17:16:39;4.82;;;3.45;;
62353;SDS011;48391;49.184;2.418;2023-09-30T17:19:05;5.18;;;3.47;;
62353;SDS011;48391;49.184;2.418;2023-09-30T17:21:31;3.30;;;2.58;;
62353;SDS011;48391;49.184;2.418;2023-09-30T17:23:57;5.40;;;3.17;;
62353;SDS011;48391;49.184;2.418;2023-09-30T17:26:23;4.30;;;3.20;;
62353;SDS011;48391;49.184;2.418;2023-09-30T17:28:49;3.75;;;2.97;;
62353;SDS011;48391;49.184;2.418;2023-09-30T17:31:15;4.88;;;2.83;;
62353;SDS011;48391;49.184;2.418;2023-09-30T17:33:41;5.18;;;3.20;;
62353;SDS011;48391;49.184;2.418;2023-09-30T17:36:08;4.35;;;3.10;;
62353;SDS011;48391;49.184;2.418;2023-09-30T17:38:34;4.75;;;2.97;;
62353;SDS011;48391;49.184;2.418;2023-09-30T17:41:02;3.35;;;2.80;;
62353;SDS011;48391;49.184;2.418;2023-09-30T17:43:35;4.13;;;2.72;;
62353;SDS011;48391;49.184;2.418;2023-09-30T17:46:11;4.50;;;2.72;;
62353;SDS011;48391;49.184;2.418;2023-09-30T17:48:37;4.50;;;3.05;;
62353;SDS011;48391;49.184;2.418;2023-09-30T17:51:03;4.82;;;2.92;;
62353;SDS011;48391;49.184;2.418;2023-09-30T17:53:31;4.72;;;3.00;;
62353;SDS011;48391;49.184;2.418;2023-09-30T17:55:57;5.10;;;3.15;;
62353;SDS011;48391;49.184;2.418;2023-09-30T17:58:23;3.28;;;2.45;;
62353;SDS011;48391;49.184;2.418;2023-09-30T18:00:50;4.63;;;2.70;;
62353;SDS011;48391;49.184;2.418;2023-09-30T18:03:17;6.10;;;3.45;;
62353;SDS011;48391;49.184;2.418;2023-09-30T18:05:43;4.40;;;2.85;;
62353;SDS011;48391;49.184;2.418;2023-09-30T18:08:09;5.10;;;3.30;;
62353;SDS011;48391;49.184;2.418;2023-09-30T18:10:35;5.05;;;3.05;;
62353;SDS011;48391;49.184;2.418;2023-09-30T18:13:01;3.97;;;2.08;;
62353;SDS011;48391;49.184;2.418;2023-09-30T18:15:28;5.40;;;3.00;;
62353;SDS011;48391;49.184;2.418;2023-09-30T18:17:54;4.55;;;2.53;;
62353;SDS011;48391;49.184;2.418;2023-09-30T18:20:20;4.20;;;2.60;;
62353;SDS011;48391;49.184;2.418;2023-09-30T18:22:46;4.95;;;3.00;;
62353;SDS011;48391;49.184;2.418;2023-09-30T18:25:12;6.95;;;3.50;;
62353;SDS011;48391;49.184;2.418;2023-09-30T18:27:39;5.43;;;3.60;;
62353;SDS011;48391;49.184;2.418;2023-09-30T18:30:06;4.68;;;3.47;;
62353;SDS011;48391;49.184;2.418;2023-09-30T18:32:32;6.72;;;4.15;;
62353;SDS011;48391;49.184;2.418;2023-09-30T18:34:58;6.75;;;4.22;;
62353;SDS011;48391;49.184;2.418;2023-09-30T18:37:24;7.28;;;4.38;;
62353;SDS011;48391;49.184;2.418;2023-09-30T18:39:51;6.20;;;4.47;;
62353;SDS011;48391;49.184;2.418;2023-09-30T18:42:17;8.55;;;5.20;;
62353;SDS011;48391;49.184;2.418;2023-09-30T18:44:43;6.88;;;5.35;;
62353;SDS011;48391;49.184;2.418;2023-09-30T18:47:09;8.68;;;5.75;;
62353;SDS011;48391;49.184;2.418;2023-09-30T18:49:35;9.35;;;6.45;;
62353;SDS011;48391;49.184;2.418;2023-09-30T18:52:01;12.50;;;8.05;;
62353;SDS011;48391;49.184;2.418;2023-09-30T18:54:27;11.88;;;8.43;;
62353;SDS011;48391;49.184;2.418;2023-09-30T18:56:54;11.02;;;7.97;;
62353;SDS011;48391;49.184;2.418;2023-09-30T18:59:20;10.43;;;7.97;;
62353;SDS011;48391;49.184;2.418;2023-09-30T19:01:48;12.80;;;7.78;;
62353;SDS011;48391;49.184;2.418;2023-09-30T19:04:14;11.55;;;8.00;;
62353;SDS011;48391;49.184;2.418;2023-09-30T19:06:40;10.02;;;7.50;;
62353;SDS011;48391;49.184;2.418;2023-09-30T19:09:06;8.82;;;6.63;;
62353;SDS011;48391;49.184;2.418;2023-09-30T19:11:33;11.07;;;7.43;;
62353;SDS011;48391;49.184;2.418;2023-09-30T19:13:59;7.78;;;6.05;;
62353;SDS011;48391;49.184;2.418;2023-09-30T19:16:28;10.45;;;6.90;;
62353;SDS011;48391;49.184;2.418;2023-09-30T19:18:54;9.73;;;5.82;;
62353;SDS011;48391;49.184;2.418;2023-09-30T19:21:21;8.90;;;6.28;;
62353;SDS011;48391;49.184;2.418;2023-09-30T19:23:47;8.50;;;6.25;;
62353;SDS011;48391;49.184;2.418;2023-09-30T19:26:13;9.48;;;6.50;;
62353;SDS011;48391;49.184;2.418;2023-09-30T19:28:40;7.35;;;5.18;;
62353;SDS011;48391;49.184;2.418;2023-09-30T19:31:09;9.55;;;6.20;;
62353;SDS011;48391;49.184;2.418;2023-09-30T19:33:36;9.02;;;6.20;;
62353;SDS011;48391;49.184;2.418;2023-09-30T19:36:05;10.15;;;6.47;;
62353;SDS011;48391;49.184;2.418;2023-09-30T19:38:32;9.30;;;5.95;;
62353;SDS011;48391;49.184;2.418;2023-09-30T19:40:58;9.45;;;6.03;;
62353;SDS011;48391;49.184;2.418;2023-09-30T19:43:24;8.75;;;6.90;;
62353;SDS011;48391;49.184;2.418;2023-09-30T19:45:57;8.93;;;6.00;;
62353;SDS011;48391;49.184;2.418;2023-09-30T19:48:23;7.80;;;5.72;;
62353;SDS011;48391;49.184;2.418;2023-09-30T19:50:49;7.57;;;5.10;;
62353;SDS011;48391;49.184;2.418;2023-09-30T19:53:15;11.18;;;6.93;;
62353;SDS011;48391;49.184;2.418;2023-09-30T19:55:41;10.52;;;7.10;;
62353;SDS011;48391;49.184;2.418;2023-09-30T19:58:07;9.38;;;6.47;;
62353;SDS011;48391;49.184;2.418;2023-09-30T20:00:36;10.40;;;7.05;;
62353;SDS011;48391;49.184;2.418;2023-09-30T20:03:03;10.65;;;7.43;;
62353;SDS011;48391;49.184;2.418;2023-09-30T20:05:29;11.52;;;7.82;;
62353;SDS011;48391;49.184;2.418;2023-09-30T20:07:55;11.05;;;7.07;;
62353;SDS011;48391;49.184;2.418;2023-09-30T20:10:21;9.88;;;6.88;;
62353;SDS011;48391;49.184;2.418;2023-09-30T20:12:47;10.20;;;7.18;;
62353;SDS011;48391;49.184;2.418;2023-09-30T20:15:13;9.05;;;6.57;;
62353;SDS011;48391;49.184;2.418;2023-09-30T20:17:40;9.25;;;6.50;;
62353;SDS011;48391;49.184;2.418;2023-09-30T20:20:06;10.45;;;6.53;;
62353;SDS011;48391;49.184;2.418;2023-09-30T20:22:36;10.43;;;7.20;;
62353;SDS011;48391;49.184;2.418;2023-09-30T20:25:03;11.80;;;7.53;;
62353;SDS011;48391;49.184;2.418;2023-09-30T20:27:32;11.93;;;7.00;;
62353;SDS011;48391;49.184;2.418;2023-09-30T20:29:59;9.93;;;7.05;;
62353;SDS011;48391;49.184;2.418;2023-09-30T20:32:25;11.18;;;6.68;;
62353;SDS011;48391;49.184;2.418;2023-09-30T20:34:51;8.50;;;5.35;;
62353;SDS011;48391;49.184;2.418;2023-09-30T20:37:17;7.85;;;5.53;;
62353;SDS011;48391;49.184;2.418;2023-09-30T20:39:43;7.47;;;5.45;;
62353;SDS011;48391;49.184;2.418;2023-09-30T20:42:10;7.80;;;5.75;;
62353;SDS011;48391;49.184;2.418;2023-09-30T20:44:36;10.45;;;5.43;;
62353;SDS011;48391;49.184;2.418;2023-09-30T20:47:02;9.05;;;5.40;;
62353;SDS011;48391;49.184;2.418;2023-09-30T20:49:28;6.40;;;4.55;;
62353;SDS011;48391;49.184;2.418;2023-09-30T20:51:54;6.35;;;4.70;;
62353;SDS011;48391;49.184;2.418;2023-09-30T20:54:22;8.93;;;4.95;;
62353;SDS011;48391;49.184;2.418;2023-09-30T20:56:49;6.72;;;4.10;;
62353;SDS011;48391;49.184;2.418;2023-09-30T20:59:17;6.72;;;3.97;;
62353;SDS011;48391;49.184;2.418;2023-09-30T21:01:43;5.32;;;3.83;;
62353;SDS011;48391;49.184;2.418;2023-09-30T21:04:11;6.22;;;4.60;;
62353;SDS011;48391;49.184;2.418;2023-09-30T21:06:38;6.03;;;3.95;;
62353;SDS011;48391;49.184;2.418;2023-09-30T21:09:06;7.70;;;4.70;;
62353;SDS011;48391;49.184;2.418;2023-09-30T21:11:32;7.85;;;4.13;;
62353;SDS011;48391;49.184;2.418;2023-09-30T21:13:59;6.38;;;4.20;;
62353;SDS011;48391;49.184;2.418;2023-09-30T21:16:25;6.32;;;4.28;;
62353;SDS011;48391;49.184;2.418;2023-09-30T21:18:53;5.80;;;3.53;;
62353;SDS011;48391;49.184;2.418;2023-09-30T21:21:19;5.55;;;3.28;;
62353;SDS011;48391;49.184;2.418;2023-09-30T21:23:46;5.88;;;3.92;;
62353;SDS011;48391;49.184;2.418;2023-09-30T21:26:13;5.57;;;3.65;;
62353;SDS011;48391;49.184;2.418;2023-09-30T21:28:39;5.90;;;4.22;;
62353;SDS011;48391;49.184;2.418;2023-09-30T21:31:13;7.40;;;4.57;;
62353;SDS011;48391;49.184;2.418;2023-09-30T21:33:40;6.25;;;4.03;;
62353;SDS011;48391;49.184;2.418;2023-09-30T21:36:06;8.00;;;5.13;;
62353;SDS011;48391;49.184;2.418;2023-09-30T21:38:32;6.88;;;5.15;;
62353;SDS011;48391;49.184;2.418;2023-09-30T21:40:58;5.18;;;3.78;;
62353;SDS011;48391;49.184;2.418;2023-09-30T21:43:24;7.78;;;5.00;;